Time;durP1;ratioP1;P1;durP2;ratioP2;P2;SDS_P1;SDS_P2;PMS_P1;PMS_P2;Temp;Humidity;BMP_temperature;BMP_pressure;BME280_temperature;BME280_humidity;BME280_pressure;Samples;Min_cycle;Max_cycle;Signal;HPM_P1;HPM_P2
2022/06/22 00:02:01;;;;;;;;;4.40;3.00;;;;;;;;4978684;28;8764;-70
2022/06/22 00:04:32;;;;;;;;;4.60;3.00;;;;;;;;4978822;28;8778;-69
2022/06/22 00:07:00;;;;;;;;;4.60;4.00;;;;;;;;4978463;28;8795;-72
2022/06/22 00:09:28;;;;;;;;;4.80;2.40;;;;;;;;4977563;28;9432;-65
2022/06/22 00:11:54;;;;;;;;;4.00;2.80;;;;;;;;4978866;28;8783;-72
2022/06/22 00:14:24;;;;;;;;;3.20;2.40;;;;;;;;4978492;28;8768;-72
2022/06/22 00:16:51;;;;;;;;;1.20;1.20;;;;;;;;4978368;28;8767;-70
2022/06/22 00:19:21;;;;;;;;;3.40;1.60;;;;;;;;4979492;28;8812;-69
2022/06/22 00:21:48;;;;;;;;;2.60;1.00;;;;;;;;4961818;28;8764;-70
2022/06/22 00:24:24;;;;;;;;;1.80;1.80;;;;;;;;4962030;28;8898;-70
2022/06/22 00:26:54;;;;;;;;;2.40;0.80;;;;;;;;4979547;28;9499;-71
2022/06/22 00:29:24;;;;;;;;;1.00;1.00;;;;;;;;4978549;28;8776;-68
2022/06/22 00:31:51;;;;;;;;;1.40;1.40;;;;;;;;4977730;28;8759;-70
2022/06/22 00:34:22;;;;;;;;;2.00;1.60;;;;;;;;4978510;28;8735;-73
2022/06/22 00:36:49;;;;;;;;;2.60;1.60;;;;;;;;4976485;28;8786;-66
2022/06/22 00:39:19;;;;;;;;;1.00;1.00;;;;;;;;4977928;28;8929;-72
2022/06/22 00:41:47;;;;;;;;;3.80;1.80;;;;;;;;4977519;28;8858;-70
2022/06/22 00:44:14;;;;;;;;;3.60;2.00;;;;;;;;4977946;28;8783;-70
2022/06/22 00:46:44;;;;;;;;;0.80;0.20;;;;;;;;4975918;28;8841;-69
2022/06/22 00:49:11;;;;;;;;;3.60;3.60;;;;;;;;4961332;28;8807;-68
2022/06/22 00:51:38;;;;;;;;;3.20;3.20;;;;;;;;4977585;28;8799;-74
2022/06/22 00:54:06;;;;;;;;;3.40;3.20;;;;;;;;4961180;28;8767;-67
2022/06/22 00:56:47;;;;;;;;;4.20;2.80;;;;;;;;4977449;28;8783;-73
2022/06/22 00:59:23;;;;;;;;;5.80;3.40;;;;;;;;4961110;28;8976;-68
2022/06/22 01:01:55;;;;;;;;;3.80;3.00;;;;;;;;4977754;28;8759;-72
2022/06/22 01:04:31;;;;;;;;;4.00;3.00;;;;;;;;4978593;28;8736;-72
2022/06/22 01:07:16;;;;;;;;;3.00;3.00;;;;;;;;4978157;28;8756;-68
2022/06/22 01:10:03;;;;;;;;;3.00;3.00;;;;;;;;4977934;28;8910;-74
2022/06/22 01:12:31;;;;;;;;;2.20;2.20;;;;;;;;4977054;28;8845;-66
2022/06/22 01:15:01;;;;;;;;;2.60;2.40;;;;;;;;4976545;28;9176;-73
2022/06/22 01:17:36;;;;;;;;;2.80;2.80;;;;;;;;4958366;28;8771;-70
2022/06/22 01:20:10;;;;;;;;;3.80;3.80;;;;;;;;4941437;29;8784;-70
2022/06/22 01:22:43;;;;;;;;;4.60;1.00;;;;;;;;4958721;28;8878;-73
2022/06/22 01:25:30;;;;;;;;;3.80;3.60;;;;;;;;4959818;28;8808;-59
2022/06/22 01:27:56;;;;;;;;;4.80;4.80;;;;;;;;4942123;28;8773;-68
2022/06/22 01:30:29;;;;;;;;;4.60;2.80;;;;;;;;4959752;28;8768;-76
2022/06/22 01:32:56;;;;;;;;;4.60;2.00;;;;;;;;4977953;28;8775;-72
2022/06/22 01:35:22;;;;;;;;;4.20;3.00;;;;;;;;4960273;28;8760;-73
2022/06/22 01:37:49;;;;;;;;;5.00;3.40;;;;;;;;4977988;28;8756;-64
2022/06/22 01:40:16;;;;;;;;;3.00;3.00;;;;;;;;4978289;28;8838;-77
2022/06/22 01:43:05;;;;;;;;;3.40;2.00;;;;;;;;4977277;28;8846;-61
2022/06/22 01:45:43;;;;;;;;;4.20;1.60;;;;;;;;4950256;28;8800;-70
2022/06/22 01:48:13;;;;;;;;;2.00;2.00;;;;;;;;4960685;28;8838;-75
2022/06/22 01:50:59;;;;;;;;;5.00;3.00;;;;;;;;4960755;28;8790;-73
2022/06/22 01:53:35;;;;;;;;;7.80;3.00;;;;;;;;4978031;28;9023;-70
2022/06/22 01:56:15;;;;;;;;;2.20;2.00;;;;;;;;4963656;28;8771;-72
2022/06/22 01:59:00;;;;;;;;;4.00;3.40;;;;;;;;4979529;28;9569;-70
2022/06/22 02:01:27;;;;;;;;;4.40;4.40;;;;;;;;4979996;28;8764;-74
2022/06/22 02:04:15;;;;;;;;;5.60;4.40;;;;;;;;4963217;28;8748;-65
2022/06/22 02:09:28;;;;;;;;;4.80;3.00;;;;;;;;4979855;28;8795;-72
2022/06/22 02:12:18;;;;;;;;;3.80;3.80;;;;;;;;4978766;28;8775;-69
2022/06/22 02:14:47;;;;;;;;;7.80;7.80;;;;;;;;4978825;28;8795;-72
2022/06/22 02:17:14;;;;;;;;;5.60;5.40;;;;;;;;4978821;28;8779;-74
2022/06/22 02:19:41;;;;;;;;;4.80;4.60;;;;;;;;4962727;28;8748;-70
2022/06/22 02:22:08;;;;;;;;;9.80;6.00;;;;;;;;4963383;28;8763;-69
2022/06/22 02:24:40;;;;;;;;;4.40;4.00;;;;;;;;4961845;28;8855;-73
2022/06/22 02:27:07;;;;;;;;;6.80;6.20;;;;;;;;4962599;28;8767;-69
2022/06/22 02:29:35;;;;;;;;;8.20;7.00;;;;;;;;4980190;28;8775;-72
2022/06/22 02:32:02;;;;;;;;;5.20;5.20;;;;;;;;4980153;28;8865;-71
2022/06/22 02:34:29;;;;;;;;;5.60;5.60;;;;;;;;4980250;28;8834;-70
2022/06/22 02:36:57;;;;;;;;;6.00;4.00;;;;;;;;4980569;28;8939;-75
2022/06/22 02:39:24;;;;;;;;;7.40;4.20;;;;;;;;4978548;28;8778;-70
2022/06/22 02:44:39;;;;;;;;;6.80;5.60;;;;;;;;4979267;28;8846;-68
2022/06/22 02:47:21;;;;;;;;;3.40;3.40;;;;;;;;4980251;28;8783;-71
2022/06/22 02:50:17;;;;;;;;;5.20;4.00;;;;;;;;4979713;28;8771;-72
2022/06/22 02:52:46;;;;;;;;;4.80;4.00;;;;;;;;4963595;28;8791;-68
2022/06/22 02:55:13;;;;;;;;;3.40;3.00;;;;;;;;4963609;28;8790;-73
2022/06/22 02:57:43;;;;;;;;;5.60;4.00;;;;;;;;4962960;28;8779;-69
2022/06/22 03:00:10;;;;;;;;;4.20;3.60;;;;;;;;4980004;28;8775;-72
2022/06/22 03:02:37;;;;;;;;;7.60;4.60;;;;;;;;4962469;28;8803;-68
2022/06/22 03:05:05;;;;;;;;;7.40;5.20;;;;;;;;4978913;28;9479;-71
2022/06/22 03:07:32;;;;;;;;;5.00;5.00;;;;;;;;4962181;28;8901;-68
2022/06/22 03:09:59;;;;;;;;;6.00;3.00;;;;;;;;4978949;28;8887;-68
2022/06/22 03:12:25;;;;;;;;;12.20;5.00;;;;;;;;4977954;28;8783;-71
2022/06/22 03:15:18;;;;;;;;;6.40;6.40;;;;;;;;4979508;28;9424;-64
2022/06/22 03:17:45;;;;;;;;;10.20;7.40;;;;;;;;4955543;28;8801;-73
2022/06/22 03:20:19;;;;;;;;;7.80;6.40;;;;;;;;4960335;28;8777;-74
2022/06/22 03:22:47;;;;;;;;;5.60;4.60;;;;;;;;4943157;28;8765;-65
2022/06/22 03:25:18;;;;;;;;;5.60;5.20;;;;;;;;4943664;28;8841;-67
2022/06/22 03:27:46;;;;;;;;;5.00;5.00;;;;;;;;4942902;28;8778;-73
2022/06/22 03:30:14;;;;;;;;;7.00;6.00;;;;;;;;4959813;28;8773;-67
2022/06/22 03:32:42;;;;;;;;;9.40;5.20;;;;;;;;4978603;28;8779;-71
2022/06/22 03:35:13;;;;;;;;;5.80;4.40;;;;;;;;4978450;28;9441;-71
2022/06/22 03:37:41;;;;;;;;;2.20;2.20;;;;;;;;4978170;28;8728;-69
2022/06/22 03:40:16;;;;;;;;;4.00;4.00;;;;;;;;4979135;28;8881;-71
2022/06/22 03:42:44;;;;;;;;;2.80;2.40;;;;;;;;4977362;28;8907;-68
2022/06/22 03:45:13;;;;;;;;;3.80;2.20;;;;;;;;4961115;28;8819;-74
2022/06/22 03:48:00;;;;;;;;;5.20;2.20;;;;;;;;4961524;28;8787;-72
2022/06/22 03:50:35;;;;;;;;;5.00;3.00;;;;;;;;4977530;28;8787;-73
2022/06/22 03:53:03;;;;;;;;;5.60;3.00;;;;;;;;4961658;28;9003;-69
2022/06/22 03:55:31;;;;;;;;;6.80;4.80;;;;;;;;4961076;28;9503;-71
2022/06/22 03:57:59;;;;;;;;;2.80;1.00;;;;;;;;4962215;28;8764;-57
2022/06/22 04:00:25;;;;;;;;;5.60;4.80;;;;;;;;4961060;28;8760;-70
2022/06/22 04:02:52;;;;;;;;;6.20;4.40;;;;;;;;4978420;28;8806;-65
2022/06/22 04:05:23;;;;;;;;;7.00;4.80;;;;;;;;4960647;28;8802;-71
2022/06/22 04:07:50;;;;;;;;;2.20;2.00;;;;;;;;4978252;28;8775;-74
2022/06/22 04:10:31;;;;;;;;;5.00;4.60;;;;;;;;4977990;28;9468;-70
2022/06/22 04:12:58;;;;;;;;;8.60;5.00;;;;;;;;4977436;28;8858;-73
2022/06/22 04:15:25;;;;;;;;;7.60;6.00;;;;;;;;4960549;28;8771;-60
2022/06/22 04:17:53;;;;;;;;;10.00;8.00;;;;;;;;4979177;28;9413;-59
2022/06/22 04:20:52;;;;;;;;;6.20;5.20;;;;;;;;4960164;28;9317;-70
2022/06/22 04:23:34;;;;;;;;;4.60;3.20;;;;;;;;4960508;28;8819;-71
2022/06/22 04:26:06;;;;;;;;;4.00;2.40;;;;;;;;4957985;28;9187;-65
2022/06/22 04:28:34;;;;;;;;;6.00;3.00;;;;;;;;4958387;28;8826;-72
2022/06/22 04:31:00;;;;;;;;;3.20;1.00;;;;;;;;4958806;28;8842;-74
2022/06/22 04:33:35;;;;;;;;;2.00;2.00;;;;;;;;4974749;28;8825;-57
2022/06/22 04:36:10;;;;;;;;;3.40;2.00;;;;;;;;4974312;28;8834;-56
2022/06/22 04:38:39;;;;;;;;;3.40;1.80;;;;;;;;4975399;28;8795;-72
2022/06/22 04:41:24;;;;;;;;;0.20;0.20;;;;;;;;4975498;28;8802;-62
2022/06/22 04:43:51;;;;;;;;;2.00;0.80;;;;;;;;4974754;28;8790;-74
2022/06/22 04:46:21;;;;;;;;;2.80;2.80;;;;;;;;4974770;28;8815;-73
2022/06/22 04:48:48;;;;;;;;;2.00;1.20;;;;;;;;4975102;28;8827;-72
2022/06/22 04:51:17;;;;;;;;;2.00;2.00;;;;;;;;4975524;28;8787;-71
2022/06/22 04:53:46;;;;;;;;;4.60;3.00;;;;;;;;4974910;28;9114;-62
2022/06/22 04:56:19;;;;;;;;;1.60;1.00;;;;;;;;4958341;28;8768;-58
2022/06/22 04:58:51;;;;;;;;;2.00;1.00;;;;;;;;4975254;28;8789;-58
2022/06/22 05:01:37;;;;;;;;;1.80;1.40;;;;;;;;4958531;28;8810;-66
2022/06/22 05:04:08;;;;;;;;;0.00;0.00;;;;;;;;4976062;28;8755;-63
2022/06/22 05:06:54;;;;;;;;;1.00;1.00;;;;;;;;4973295;28;8850;-74
2022/06/22 05:09:26;;;;;;;;;1.40;1.40;;;;;;;;4919318;28;8744;-59
2022/06/22 05:11:53;;;;;;;;;2.60;1.00;;;;;;;;4974872;28;8906;-74
2022/06/22 05:14:30;;;;;;;;;1.00;1.00;;;;;;;;4973448;28;8783;-72
2022/06/22 05:16:57;;;;;;;;;1.20;1.00;;;;;;;;4973460;28;9049;-74
2022/06/22 05:19:27;;;;;;;;;1.00;1.00;;;;;;;;4958728;28;9440;-73
2022/06/22 05:21:53;;;;;;;;;1.00;1.00;;;;;;;;4958443;28;8797;-73
2022/06/22 05:24:32;;;;;;;;;1.60;1.00;;;;;;;;4974741;28;8802;-73
2022/06/22 05:27:00;;;;;;;;;1.40;1.00;;;;;;;;4957875;28;8853;-71
2022/06/22 05:29:35;;;;;;;;;1.80;1.00;;;;;;;;4959126;28;8832;-68
2022/06/22 05:32:03;;;;;;;;;2.00;1.60;;;;;;;;4949066;28;8771;-69
2022/06/22 05:34:32;;;;;;;;;1.00;1.00;;;;;;;;4977284;28;8903;-68
2022/06/22 05:37:05;;;;;;;;;1.60;0.80;;;;;;;;4979143;28;8779;-75
2022/06/22 05:39:35;;;;;;;;;0.80;0.00;;;;;;;;4978015;28;8803;-74
2022/06/22 05:42:01;;;;;;;;;0.20;0.20;;;;;;;;4978631;28;8814;-73
2022/06/22 05:44:28;;;;;;;;;0.20;0.00;;;;;;;;4960661;28;8771;-73
2022/06/22 05:46:56;;;;;;;;;1.60;0.00;;;;;;;;4978411;28;8775;-55
2022/06/22 05:49:27;;;;;;;;;1.00;1.00;;;;;;;;4978845;28;8834;-69
2022/06/22 05:51:54;;;;;;;;;0.00;0.00;;;;;;;;4961902;28;8795;-74
2022/06/22 05:54:41;;;;;;;;;1.00;1.00;;;;;;;;4977909;28;8763;-74
2022/06/22 05:57:18;;;;;;;;;0.20;0.20;;;;;;;;4977760;28;9293;-73
2022/06/22 05:59:55;;;;;;;;;1.40;1.00;;;;;;;;4961728;28;8767;-71
2022/06/22 06:02:22;;;;;;;;;3.60;1.00;;;;;;;;4977934;28;8779;-52
2022/06/22 06:04:49;;;;;;;;;0.00;0.00;;;;;;;;4978555;28;8763;-70
2022/06/22 06:07:19;;;;;;;;;0.40;0.00;;;;;;;;4979162;28;8760;-73
2022/06/22 06:09:46;;;;;;;;;0.20;0.00;;;;;;;;4962847;28;8772;-64
2022/06/22 06:12:16;;;;;;;;;1.00;1.00;;;;;;;;4962703;28;8775;-69
2022/06/22 06:14:44;;;;;;;;;1.00;1.00;;;;;;;;4963084;28;8790;-74
2022/06/22 06:17:31;;;;;;;;;1.00;1.00;;;;;;;;4980237;28;8783;-72
2022/06/22 06:19:57;;;;;;;;;2.40;2.40;;;;;;;;4953425;28;8775;-61
2022/06/22 06:22:24;;;;;;;;;0.00;0.00;;;;;;;;4963611;28;8779;-51
2022/06/22 06:27:39;;;;;;;;;3.00;2.00;;;;;;;;4980915;28;8803;-58
2022/06/22 06:30:19;;;;;;;;;1.00;0.00;;;;;;;;4963425;28;9444;-68
2022/06/22 06:32:48;;;;;;;;;1.00;1.00;;;;;;;;4980243;28;8799;-69
2022/06/22 06:35:18;;;;;;;;;2.60;1.00;;;;;;;;4980578;28;8783;-50
2022/06/22 06:37:58;;;;;;;;;1.20;1.00;;;;;;;;4980348;28;8811;-72
2022/06/22 06:40:36;;;;;;;;;3.00;2.00;;;;;;;;4952009;28;8801;-72
2022/06/22 06:43:09;;;;;;;;;1.40;1.40;;;;;;;;4956904;28;8777;-72
2022/06/22 06:45:36;;;;;;;;;3.80;2.00;;;;;;;;4941717;28;8821;-73
2022/06/22 06:48:03;;;;;;;;;2.00;2.00;;;;;;;;4959180;28;8774;-75
2022/06/22 06:50:40;;;;;;;;;1.20;1.20;;;;;;;;4957417;28;8789;-76
2022/06/22 06:53:13;;;;;;;;;1.20;1.20;;;;;;;;4956395;28;8788;-59
2022/06/22 06:55:47;;;;;;;;;1.00;1.00;;;;;;;;4956438;28;8911;-69
2022/06/22 06:58:16;;;;;;;;;1.20;1.20;;;;;;;;4942507;28;8844;-67
2022/06/22 07:00:42;;;;;;;;;1.00;0.00;;;;;;;;4954653;28;8797;-63
2022/06/22 07:03:13;;;;;;;;;4.80;1.00;;;;;;;;4956366;28;8903;-57
2022/06/22 07:05:39;;;;;;;;;5.20;1.00;;;;;;;;4940183;29;9415;-75
2022/06/22 07:08:23;;;;;;;;;0.00;0.00;;;;;;;;4941565;28;8781;-63
2022/06/22 07:10:51;;;;;;;;;0.40;0.40;;;;;;;;4941455;28;8833;-75
2022/06/22 07:13:27;;;;;;;;;1.60;1.60;;;;;;;;4940614;28;8777;-75
2022/06/22 07:15:57;;;;;;;;;1.00;1.00;;;;;;;;4940477;29;8786;-60
2022/06/22 07:18:24;;;;;;;;;2.00;0.20;;;;;;;;4940742;28;8774;-75
2022/06/22 07:20:55;;;;;;;;;1.00;1.00;;;;;;;;4941387;28;8852;-74
2022/06/22 07:23:42;;;;;;;;;2.00;2.00;;;;;;;;4941081;28;8804;-62
2022/06/22 07:26:12;;;;;;;;;0.00;0.00;;;;;;;;4955853;28;8797;-61
2022/06/22 07:28:39;;;;;;;;;2.40;2.00;;;;;;;;4955361;28;10164;-75
2022/06/22 07:31:18;;;;;;;;;1.40;1.40;;;;;;;;4950908;28;9583;-75
2022/06/22 07:33:49;;;;;;;;;1.00;1.00;;;;;;;;4940125;28;8789;-69
2022/06/22 07:36:36;;;;;;;;;1.20;1.20;;;;;;;;4939814;29;8853;-70
2022/06/22 07:39:06;;;;;;;;;2.00;2.00;;;;;;;;4955535;28;8785;-72
2022/06/22 07:41:33;;;;;;;;;3.00;1.40;;;;;;;;4970205;28;8826;-71
2022/06/22 07:43:59;;;;;;;;;0.80;0.40;;;;;;;;4979694;28;8799;-70
2022/06/22 07:46:46;;;;;;;;;2.00;2.00;;;;;;;;4979151;28;8815;-71
2022/06/22 07:49:22;;;;;;;;;1.00;1.00;;;;;;;;4962964;28;8807;-74
2022/06/22 07:51:54;;;;;;;;;1.20;1.00;;;;;;;;4978728;28;8791;-65
2022/06/22 07:54:26;;;;;;;;;2.60;1.20;;;;;;;;4961907;28;8791;-75
2022/06/22 07:56:55;;;;;;;;;2.60;1.00;;;;;;;;4979344;28;8798;-74
2022/06/22 07:59:26;;;;;;;;;2.00;1.00;;;;;;;;4978821;28;8874;-65
2022/06/22 08:01:54;;;;;;;;;2.00;0.80;;;;;;;;4978911;28;8775;-66
2022/06/22 08:04:20;;;;;;;;;1.20;1.20;;;;;;;;4979742;28;8779;-73
2022/06/22 08:07:13;;;;;;;;;1.00;1.00;;;;;;;;4979099;28;8815;-72
2022/06/22 08:09:52;;;;;;;;;3.60;1.00;;;;;;;;4975693;28;8782;-70
2022/06/22 08:12:42;;;;;;;;;4.60;2.20;;;;;;;;4978617;28;8787;-73
2022/06/22 08:15:09;;;;;;;;;1.60;1.60;;;;;;;;4969037;28;8767;-65
2022/06/22 08:17:50;;;;;;;;;2.20;2.00;;;;;;;;4960774;28;8791;-74
2022/06/22 08:20:35;;;;;;;;;4.40;1.80;;;;;;;;4978087;28;8941;-71
2022/06/22 08:23:04;;;;;;;;;2.20;2.00;;;;;;;;4961358;28;8779;-72
2022/06/22 08:25:31;;;;;;;;;1.00;0.00;;;;;;;;4961388;28;8815;-71
2022/06/22 08:27:57;;;;;;;;;1.60;1.00;;;;;;;;4961861;28;8788;-66
2022/06/22 08:30:24;;;;;;;;;0.60;0.60;;;;;;;;4961235;28;8776;-74
2022/06/22 08:32:52;;;;;;;;;0.20;0.20;;;;;;;;4978167;28;8791;-63
2022/06/22 08:35:19;;;;;;;;;1.00;1.00;;;;;;;;4976849;28;8799;-73
2022/06/22 08:38:04;;;;;;;;;0.00;0.00;;;;;;;;4978418;28;9564;-67
2022/06/22 08:40:35;;;;;;;;;1.80;0.40;;;;;;;;4978122;28;8775;-74
2022/06/22 08:43:05;;;;;;;;;2.00;2.00;;;;;;;;4961128;28;8823;-61
2022/06/22 08:45:36;;;;;;;;;2.40;2.00;;;;;;;;4977840;28;8888;-75
2022/06/22 08:48:06;;;;;;;;;1.00;1.00;;;;;;;;4961073;28;8791;-74
2022/06/22 08:50:36;;;;;;;;;0.00;0.00;;;;;;;;4960968;28;8806;-69
2022/06/22 08:53:08;;;;;;;;;0.20;0.20;;;;;;;;4978681;28;8771;-71
2022/06/22 08:55:57;;;;;;;;;1.40;1.20;;;;;;;;4978336;28;8777;-73
2022/06/22 08:58:29;;;;;;;;;3.00;0.20;;;;;;;;4978527;28;8771;-68
2022/06/22 09:00:59;;;;;;;;;3.20;0.60;;;;;;;;4978957;28;8826;-75
2022/06/22 09:03:44;;;;;;;;;2.00;1.00;;;;;;;;4977456;28;8747;-71
2022/06/22 09:06:25;;;;;;;;;1.60;1.00;;;;;;;;4978292;28;8898;-73
2022/06/22 09:08:55;;;;;;;;;0.00;0.00;;;;;;;;4978482;28;8779;-64
2022/06/22 09:11:24;;;;;;;;;0.00;0.00;;;;;;;;4977952;28;8755;-73
2022/06/22 09:13:54;;;;;;;;;1.60;0.00;;;;;;;;4978422;28;8862;-72
2022/06/22 09:16:39;;;;;;;;;1.00;1.00;;;;;;;;4957958;28;8788;-73
2022/06/22 09:19:24;;;;;;;;;1.80;0.20;;;;;;;;4959252;28;8888;-66
2022/06/22 09:22:02;;;;;;;;;0.00;0.00;;;;;;;;4957665;28;9961;-67
2022/06/22 09:24:34;;;;;;;;;0.60;0.60;;;;;;;;4958215;28;8793;-74
2022/06/22 09:27:17;;;;;;;;;3.00;1.00;;;;;;;;4958408;28;8786;-72
2022/06/22 09:30:02;;;;;;;;;4.80;1.00;;;;;;;;4958812;29;8809;-70
2022/06/22 09:32:35;;;;;;;;;1.00;1.00;;;;;;;;4977321;28;8743;-71
2022/06/22 09:35:02;;;;;;;;;1.80;1.00;;;;;;;;4978207;28;8760;-71
2022/06/22 09:37:34;;;;;;;;;1.60;0.00;;;;;;;;4978036;28;8743;-73
2022/06/22 09:40:07;;;;;;;;;3.20;2.00;;;;;;;;4960923;28;8768;-67
2022/06/22 09:42:44;;;;;;;;;1.00;0.60;;;;;;;;4977556;28;8756;-75
2022/06/22 09:45:29;;;;;;;;;2.00;2.00;;;;;;;;4976696;28;8925;-69
2022/06/22 09:47:56;;;;;;;;;3.00;0.80;;;;;;;;4960527;28;9183;-74
2022/06/22 09:50:41;;;;;;;;;2.60;1.60;;;;;;;;4960378;28;8768;-69
2022/06/22 09:53:18;;;;;;;;;2.00;2.00;;;;;;;;4960440;28;8759;-71
2022/06/22 09:58:41;;;;;;;;;1.60;1.00;;;;;;;;4977333;28;9384;-69
2022/06/22 10:01:20;;;;;;;;;1.20;0.00;;;;;;;;4978379;28;8760;-60
2022/06/22 10:03:52;;;;;;;;;1.20;1.20;;;;;;;;4977320;28;8764;-74
2022/06/22 10:06:25;;;;;;;;;0.00;0.00;;;;;;;;4976974;28;8819;-73
2022/06/22 10:09:01;;;;;;;;;1.00;1.00;;;;;;;;4977858;28;8809;-69
2022/06/22 10:11:45;;;;;;;;;0.00;0.00;;;;;;;;4977261;28;8767;-61
2022/06/22 10:14:29;;;;;;;;;3.60;1.00;;;;;;;;4977901;28;8755;-74
2022/06/22 10:16:58;;;;;;;;;1.00;1.00;;;;;;;;4981099;28;9041;-74
2022/06/22 10:19:30;;;;;;;;;4.20;1.80;;;;;;;;4980899;28;9661;-62
2022/06/22 10:22:00;;;;;;;;;2.60;2.00;;;;;;;;4964429;28;8787;-64
2022/06/22 10:24:47;;;;;;;;;6.80;3.20;;;;;;;;4980691;28;8778;-74
2022/06/22 10:27:32;;;;;;;;;2.40;2.40;;;;;;;;4963571;28;8837;-70
2022/06/22 10:29:59;;;;;;;;;2.20;2.00;;;;;;;;4980741;28;8787;-74
2022/06/22 10:32:28;;;;;;;;;4.40;3.00;;;;;;;;4980341;28;8756;-73
2022/06/22 10:34:55;;;;;;;;;4.00;2.00;;;;;;;;4981020;28;8751;-60
2022/06/22 10:37:25;;;;;;;;;1.80;1.80;;;;;;;;4981299;28;8744;-66
2022/06/22 10:40:02;;;;;;;;;2.00;2.00;;;;;;;;4981072;28;9397;-75
2022/06/22 10:45:35;;;;;;;;;4.80;3.00;;;;;;;;4942197;28;9474;-75
2022/06/22 10:48:07;;;;;;;;;4.80;3.00;;;;;;;;4942252;29;9414;-57
2022/06/22 10:50:37;;;;;;;;;5.00;2.60;;;;;;;;4941634;28;8773;-54
2022/06/22 10:53:06;;;;;;;;;2.60;2.00;;;;;;;;4942327;29;8766;-64
2022/06/22 10:55:51;;;;;;;;;1.00;1.00;;;;;;;;4940440;28;9466;-66
2022/06/22 10:58:30;;;;;;;;;3.40;1.80;;;;;;;;4942566;29;9435;-63
2022/06/22 11:01:01;;;;;;;;;2.60;1.00;;;;;;;;4942206;28;8860;-69
2022/06/22 11:03:37;;;;;;;;;2.00;1.00;;;;;;;;4955935;29;8984;-71
2022/06/22 11:06:22;;;;;;;;;0.80;0.00;;;;;;;;4941620;28;8798;-74
2022/06/22 11:09:03;;;;;;;;;0.60;0.00;;;;;;;;4941780;29;8757;-70
2022/06/22 11:11:37;;;;;;;;;4.00;2.20;;;;;;;;4941382;29;8796;-63
2022/06/22 11:14:09;;;;;;;;;3.40;2.00;;;;;;;;4940373;29;8805;-60
2022/06/22 11:16:42;;;;;;;;;6.80;4.00;;;;;;;;4941165;29;8808;-69
2022/06/22 11:19:28;;;;;;;;;3.60;3.60;;;;;;;;4942224;29;8877;-75
2022/06/22 11:21:55;;;;;;;;;2.00;2.00;;;;;;;;4942307;29;8766;-66
2022/06/22 11:24:24;;;;;;;;;3.80;2.60;;;;;;;;4941109;28;8821;-60
2022/06/22 11:32:55;;;;;;;;;17.25;12.25;;;;;;;;4940769;29;8757;-74
2022/06/22 11:35:25;;;;;;;;;7.60;7.20;;;;;;;;4926205;29;8899;-74
2022/06/22 11:37:58;;;;;;;;;7.20;6.80;;;;;;;;4941501;29;8788;-74
2022/06/22 11:40:24;;;;;;;;;6.50;6.50;;;;;;;;4948031;28;8915;-72
2022/06/22 11:42:58;;;;;;;;;6.40;5.80;;;;;;;;4980388;28;8791;-71
2022/06/22 11:45:50;;;;;;;;;6.80;6.40;;;;;;;;4977870;28;8814;-64
2022/06/22 11:48:29;;;;;;;;;7.60;5.00;;;;;;;;4979237;28;8803;-73
2022/06/22 11:51:06;;;;;;;;;9.60;6.80;;;;;;;;4962418;28;8762;-68
2022/06/22 11:53:38;;;;;;;;;7.20;5.60;;;;;;;;4962181;28;8841;-75
2022/06/22 11:56:11;;;;;;;;;7.20;7.20;;;;;;;;4979475;28;8751;-76
2022/06/22 11:59:10;;;;;;;;;10.00;8.75;;;;;;;;4961900;28;8776;-64
2022/06/22 12:01:48;;;;;;;;;11.25;10.00;;;;;;;;4927412;28;8895;-71
2022/06/22 12:04:17;;;;;;;;;10.40;8.80;;;;;;;;4943668;28;8777;-64
2022/06/22 12:06:44;;;;;;;;;15.00;11.50;;;;;;;;4959342;28;9506;-65
2022/06/22 12:09:11;;;;;;;;;14.50;12.75;;;;;;;;4959637;28;8766;-66
2022/06/22 12:11:40;;;;;;;;;13.00;10.50;;;;;;;;4959281;28;8960;-74
2022/06/22 12:17:29;;;;;;;;;14.50;12.00;;;;;;;;4975887;28;8755;-75
2022/06/22 12:20:02;;;;;;;;;20.50;16.75;;;;;;;;4978893;28;8775;-65
2022/06/22 12:22:28;;;;;;;;;19.00;16.75;;;;;;;;4978691;28;9467;-73
2022/06/22 12:24:55;;;;;;;;;19.75;15.00;;;;;;;;4979431;28;8772;-74
2022/06/22 12:27:24;;;;;;;;;20.50;19.50;;;;;;;;4961257;28;8787;-74
2022/06/22 12:30:10;;;;;;;;;40.00;32.75;;;;;;;;4961324;28;8945;-72
2022/06/22 12:32:41;;;;;;;;;37.75;31.00;;;;;;;;4959097;28;8824;-59
2022/06/22 12:35:27;;;;;;;;;18.25;15.00;;;;;;;;4942464;28;8777;-64
2022/06/22 12:37:55;;;;;;;;;15.25;13.25;;;;;;;;4958822;28;8758;-70
2022/06/22 12:40:23;;;;;;;;;10.25;9.25;;;;;;;;4974119;28;8880;-59
2022/06/22 12:42:53;;;;;;;;;8.50;5.25;;;;;;;;4942342;28;9558;-76
2022/06/22 12:45:28;;;;;;;;;11.80;9.80;;;;;;;;4960817;28;8782;-62
2022/06/22 12:48:14;;;;;;;;;12.40;10.00;;;;;;;;4977417;28;9417;-74
2022/06/22 12:50:40;;;;;;;;;9.00;8.00;;;;;;;;4978405;28;8763;-68
2022/06/22 12:53:09;;;;;;;;;8.50;7.75;;;;;;;;4978841;28;8760;-65
2022/06/22 12:55:38;;;;;;;;;12.60;8.00;;;;;;;;4960711;28;9558;-66
2022/06/22 12:58:10;;;;;;;;;14.00;9.80;;;;;;;;4977892;28;8764;-75
2022/06/22 13:00:37;;;;;;;;;10.40;8.20;;;;;;;;4978510;28;8939;-76
2022/06/22 13:03:04;;;;;;;;;11.00;10.20;;;;;;;;4978482;28;8776;-75
2022/06/22 13:05:34;;;;;;;;;16.00;10.00;;;;;;;;4961040;28;9043;-73
2022/06/22 13:08:02;;;;;;;;;12.00;11.25;;;;;;;;4951519;28;8788;-73
2022/06/22 13:10:30;;;;;;;;;10.00;8.20;;;;;;;;4976807;28;8767;-66
2022/06/22 13:13:04;;;;;;;;;6.75;6.75;;;;;;;;4961955;28;8818;-68
2022/06/22 13:15:33;;;;;;;;;9.80;7.20;;;;;;;;4977798;28;8768;-76
2022/06/22 13:17:59;;;;;;;;;8.20;8.00;;;;;;;;4961094;28;8799;-58
2022/06/22 13:20:30;;;;;;;;;13.25;9.00;;;;;;;;4977999;28;8775;-72
2022/06/22 13:23:20;;;;;;;;;7.50;7.00;;;;;;;;4960883;28;8811;-57
2022/06/22 13:25:47;;;;;;;;;15.75;9.00;;;;;;;;4951023;28;9436;-75
2022/06/22 13:28:22;;;;;;;;;11.00;9.00;;;;;;;;4978914;28;8899;-76
2022/06/22 13:30:55;;;;;;;;;10.80;7.00;;;;;;;;4976707;28;8900;-71
2022/06/22 13:33:24;;;;;;;;;10.00;8.00;;;;;;;;4977791;28;8787;-59
2022/06/22 13:35:55;;;;;;;;;12.20;10.40;;;;;;;;4978146;28;8760;-74
2022/06/22 13:38:50;;;;;;;;;16.75;12.00;;;;;;;;4960776;28;8798;-74
2022/06/22 13:41:19;;;;;;;;;10.50;9.50;;;;;;;;4954187;28;8839;-67
2022/06/22 13:44:01;;;;;;;;;11.25;11.25;;;;;;;;4939290;28;8776;-46
2022/06/22 13:46:40;;;;;;;;;17.60;12.00;;;;;;;;4937760;29;8928;-71
2022/06/22 13:49:06;;;;;;;;;9.20;8.60;;;;;;;;4938952;29;8813;-71
2022/06/22 13:51:45;;;;;;;;;5.20;4.40;;;;;;;;4942823;29;8888;-63
2022/06/22 13:54:13;;;;;;;;;11.60;9.00;;;;;;;;4943140;28;8761;-75
2022/06/22 13:56:47;;;;;;;;;15.00;9.50;;;;;;;;4943022;29;8799;-74
2022/06/22 13:59:34;;;;;;;;;18.50;12.50;;;;;;;;4942934;28;8781;-74
2022/06/22 14:02:03;;;;;;;;;7.60;7.60;;;;;;;;4942822;29;8856;-74
2022/06/22 14:04:34;;;;;;;;;9.00;8.20;;;;;;;;4957520;29;8812;-59
2022/06/22 14:07:24;;;;;;;;;12.20;7.40;;;;;;;;4943396;29;9350;-76
2022/06/22 14:10:03;;;;;;;;;10.00;6.60;;;;;;;;4938215;28;8773;-75
2022/06/22 14:12:32;;;;;;;;;8.60;5.20;;;;;;;;4942567;29;8769;-61
2022/06/22 14:15:05;;;;;;;;;5.80;5.20;;;;;;;;4942833;28;8809;-74
2022/06/22 14:17:52;;;;;;;;;6.80;5.60;;;;;;;;4941034;29;8786;-74
2022/06/22 14:20:21;;;;;;;;;6.00;6.00;;;;;;;;4942177;29;8869;-63
2022/06/22 14:22:51;;;;;;;;;7.00;4.60;;;;;;;;4941477;29;8816;-75
2022/06/22 14:25:33;;;;;;;;;10.00;7.00;;;;;;;;4942862;29;8931;-73
2022/06/22 14:28:04;;;;;;;;;8.80;7.20;;;;;;;;4942843;29;8773;-63
2022/06/22 14:30:30;;;;;;;;;8.40;7.60;;;;;;;;4940689;29;8977;-64
2022/06/22 14:33:14;;;;;;;;;7.00;6.40;;;;;;;;4942497;28;8806;-73
2022/06/22 14:35:59;;;;;;;;;9.60;8.00;;;;;;;;4941964;29;8792;-69
2022/06/22 14:38:32;;;;;;;;;5.80;5.80;;;;;;;;4940832;28;8770;-69
2022/06/22 14:41:12;;;;;;;;;6.60;6.20;;;;;;;;4958109;28;8796;-71
2022/06/22 14:43:51;;;;;;;;;7.20;5.60;;;;;;;;4963452;28;8873;-66
2022/06/22 14:46:38;;;;;;;;;6.20;5.00;;;;;;;;4964036;28;9606;-71
2022/06/22 14:49:08;;;;;;;;;9.60;7.60;;;;;;;;4981377;28;9502;-68
2022/06/22 14:51:36;;;;;;;;;10.80;8.00;;;;;;;;4980734;28;8772;-68
2022/06/22 14:54:10;;;;;;;;;6.20;5.60;;;;;;;;4963591;28;8813;-72
2022/06/22 14:56:46;;;;;;;;;11.40;7.00;;;;;;;;4979646;28;8800;-71
2022/06/22 14:59:27;;;;;;;;;7.80;6.00;;;;;;;;4980501;28;8855;-72
2022/06/22 15:01:59;;;;;;;;;8.60;6.20;;;;;;;;4979302;28;8755;-70
2022/06/22 15:04:27;;;;;;;;;8.00;5.00;;;;;;;;4980179;28;8787;-71
2022/06/22 15:07:12;;;;;;;;;5.80;5.00;;;;;;;;4963647;28;8869;-73
2022/06/22 15:09:43;;;;;;;;;6.20;6.20;;;;;;;;4980076;28;8779;-62
2022/06/22 15:15:12;;;;;;;;;8.40;6.60;;;;;;;;4980111;28;8799;-75
2022/06/22 15:17:40;;;;;;;;;7.20;6.00;;;;;;;;4960433;28;8880;-67
2022/06/22 15:20:16;;;;;;;;;10.60;8.20;;;;;;;;4960965;28;8789;-68
2022/06/22 15:22:44;;;;;;;;;5.80;3.20;;;;;;;;4960686;28;8746;-72
2022/06/22 15:25:13;;;;;;;;;7.20;6.40;;;;;;;;4944066;28;9490;-61
2022/06/22 15:27:42;;;;;;;;;10.60;7.60;;;;;;;;4943517;28;8766;-67
2022/06/22 15:30:19;;;;;;;;;8.00;7.00;;;;;;;;4943634;28;8773;-75
2022/06/22 15:32:58;;;;;;;;;6.20;5.20;;;;;;;;4978535;28;8759;-66
2022/06/22 15:35:25;;;;;;;;;7.80;7.20;;;;;;;;4979546;28;8756;-70
2022/06/22 15:37:56;;;;;;;;;13.40;8.40;;;;;;;;4962189;28;8834;-75
2022/06/22 15:40:48;;;;;;;;;7.40;6.80;;;;;;;;4978909;28;8803;-56
2022/06/22 15:43:34;;;;;;;;;8.60;6.60;;;;;;;;4976016;28;8728;-74
2022/06/22 15:46:19;;;;;;;;;7.80;7.60;;;;;;;;4962459;28;8978;-62
2022/06/22 15:48:48;;;;;;;;;10.00;8.00;;;;;;;;4979093;28;8841;-72
2022/06/22 15:51:21;;;;;;;;;8.00;7.00;;;;;;;;4979288;28;8767;-75
2022/06/22 15:54:08;;;;;;;;;9.60;7.60;;;;;;;;4969012;28;8945;-63
2022/06/22 15:56:37;;;;;;;;;9.00;6.40;;;;;;;;4979040;28;8760;-61